createdAt,value
2018-06-23T00:01:16.749Z,50.95
2018-06-23T00:03:44.481Z,50.92
2018-06-23T00:06:12.166Z,50.94
2018-06-23T00:08:39.967Z,50.92
2018-06-23T00:11:07.713Z,51.11
2018-06-23T00:13:35.737Z,51.06
2018-06-23T00:16:03.524Z,50.91
2018-06-23T00:18:31.263Z,50.96
2018-06-23T00:20:59.081Z,51.04
2018-06-23T00:23:26.843Z,50.80
2018-06-23T00:26:00.212Z,50.97
2018-06-23T00:28:28.073Z,50.98
2018-06-23T00:30:55.909Z,50.87
2018-06-23T00:33:23.625Z,50.98
2018-06-23T00:35:51.534Z,50.83
2018-06-23T00:38:19.305Z,50.98
2018-06-23T00:40:47.199Z,50.93
2018-06-23T00:43:15.077Z,50.97
2018-06-23T00:45:42.893Z,50.88
2018-06-23T00:48:10.774Z,51.08
2018-06-23T00:50:38.840Z,50.88
2018-06-23T00:53:06.674Z,50.80
2018-06-23T00:55:34.412Z,51.03
2018-06-23T00:58:02.142Z,51.13
2018-06-23T01:00:29.964Z,51.10
2018-06-23T01:02:57.710Z,51.25
2018-06-23T01:05:25.388Z,50.94
2018-06-23T01:07:53.329Z,50.95
2018-06-23T01:10:21.064Z,50.92
2018-06-23T01:12:48.954Z,51.14
2018-06-23T01:15:16.801Z,51.22
2018-06-23T01:17:44.585Z,51.30
2018-06-23T01:20:12.476Z,51.32
2018-06-23T01:22:40.741Z,51.43
2018-06-23T01:25:08.485Z,51.24
2018-06-23T01:27:36.231Z,51.28
2018-06-23T01:30:04.276Z,51.29
2018-06-23T01:32:32.135Z,51.39
2018-06-23T01:35:00.259Z,51.25
2018-06-23T01:37:28.010Z,51.49
2018-06-23T01:39:55.767Z,51.22
2018-06-23T01:42:23.529Z,51.50
2018-06-23T01:44:51.500Z,51.53
2018-06-23T01:47:19.296Z,51.34
2018-06-23T01:49:46.970Z,51.53
2018-06-23T01:52:14.863Z,51.78
2018-06-23T01:54:42.658Z,51.08
2018-06-23T01:57:10.426Z,51.38
2018-06-23T01:59:38.243Z,51.47
2018-06-23T02:02:06.031Z,51.31
2018-06-23T02:04:33.727Z,51.51
2018-06-23T02:07:01.538Z,51.54
2018-06-23T02:09:29.357Z,51.49
2018-06-23T02:11:57.168Z,51.54
2018-06-23T02:14:30.522Z,51.62
2018-06-23T02:18:04.442Z,51.37
2018-06-23T02:20:37.809Z,51.65
2018-06-23T02:23:11.107Z,51.38
2018-06-23T02:25:44.497Z,51.33
2018-06-23T02:28:17.637Z,51.46
2018-06-23T02:30:50.998Z,51.54
2018-06-23T02:33:24.427Z,51.46
2018-06-23T02:35:52.216Z,51.50
2018-06-23T02:38:20.009Z,51.61
2018-06-23T02:40:47.810Z,51.64
2018-06-23T02:43:15.678Z,51.62
2018-06-23T02:45:43.559Z,51.63
2018-06-23T02:48:11.256Z,51.73
2018-06-23T02:50:39.152Z,51.53
2018-06-23T02:53:06.887Z,51.79
2018-06-23T02:55:34.637Z,51.94
2018-06-23T02:58:02.461Z,51.32
2018-06-23T03:00:30.196Z,51.62
2018-06-23T03:02:57.974Z,51.69
2018-06-23T03:05:25.979Z,51.64
2018-06-23T03:07:53.707Z,51.69
2018-06-23T03:10:21.465Z,51.40
2018-06-23T03:12:49.264Z,51.55
2018-06-23T03:15:17.114Z,51.73
2018-06-23T03:17:45.837Z,51.59
2018-06-23T03:20:13.721Z,51.38
2018-06-23T03:22:41.412Z,51.73
2018-06-23T03:25:09.172Z,51.73
2018-06-23T03:27:36.960Z,51.80
2018-06-23T03:30:04.768Z,51.80
2018-06-23T03:32:32.662Z,51.92
2018-06-23T03:35:00.662Z,51.68
2018-06-23T03:37:28.510Z,51.71
2018-06-23T03:39:56.396Z,51.72
2018-06-23T03:42:24.112Z,51.93
2018-06-23T03:44:51.940Z,51.58
2018-06-23T03:47:19.701Z,51.79
2018-06-23T03:49:47.499Z,51.67
2018-06-23T03:52:15.380Z,51.70
2018-06-23T03:54:43.130Z,51.73
2018-06-23T03:57:10.906Z,51.47
2018-06-23T03:59:38.834Z,51.61
2018-06-23T04:02:06.553Z,51.87
2018-06-23T04:04:34.693Z,51.65
2018-06-23T04:07:02.896Z,51.83
2018-06-23T04:09:30.718Z,51.68
2018-06-23T04:11:58.511Z,51.71
2018-06-23T04:14:26.178Z,51.58
2018-06-23T04:16:54.163Z,51.70
2018-06-23T04:19:21.909Z,51.73
2018-06-23T04:21:50.109Z,51.67
2018-06-23T04:24:17.829Z,51.68
2018-06-23T04:26:45.600Z,51.54
2018-06-23T04:29:13.371Z,51.63
2018-06-23T04:31:41.229Z,51.82
2018-06-23T04:34:08.982Z,51.83
2018-06-23T04:36:36.964Z,51.79
2018-06-23T04:39:06.592Z,51.91
2018-06-23T04:41:34.305Z,51.88
2018-06-23T04:44:02.234Z,51.70
2018-06-23T04:46:29.996Z,51.82
2018-06-23T04:48:57.953Z,51.71
2018-06-23T04:51:25.660Z,51.44
2018-06-23T04:53:53.488Z,51.42
2018-06-23T04:56:21.746Z,51.25
2018-06-23T04:58:49.498Z,51.38
2018-06-23T05:01:17.266Z,51.38
2018-06-23T05:03:45.216Z,51.37
2018-06-23T05:06:12.912Z,51.44
2018-06-23T05:08:40.729Z,51.54
2018-06-23T05:11:08.925Z,51.70
2018-06-23T05:13:36.765Z,51.39
2018-06-23T05:16:05.160Z,51.60
2018-06-23T05:18:32.960Z,51.37
2018-06-23T05:21:00.698Z,51.34
2018-06-23T05:23:28.459Z,51.02
2018-06-23T05:25:56.235Z,51.05
2018-06-23T05:28:24.058Z,51.20
2018-06-23T05:30:52.005Z,51.41
2018-06-23T05:33:21.393Z,51.33
2018-06-23T05:35:49.238Z,51.42
2018-06-23T05:38:17.160Z,51.15
2018-06-23T05:40:44.981Z,51.03
2018-06-23T05:43:12.953Z,51.29
2018-06-23T05:45:40.951Z,51.08
2018-06-23T05:48:09.132Z,51.11
2018-06-23T05:50:36.904Z,51.11
2018-06-23T05:53:04.644Z,51.16
2018-06-23T05:55:32.463Z,51.05
2018-06-23T05:58:00.244Z,50.84
2018-06-23T06:00:28.144Z,50.70
2018-06-23T06:02:56.009Z,50.61
2018-06-23T06:05:23.781Z,50.74
2018-06-23T06:07:51.510Z,50.86
2018-06-23T06:10:19.795Z,50.99
2018-06-23T06:12:47.560Z,50.28
2018-06-23T06:15:15.306Z,50.60
2018-06-23T06:17:43.202Z,50.99
2018-06-23T06:20:12.702Z,50.96
2018-06-23T06:22:42.616Z,50.70
2018-06-23T06:25:11.001Z,51.10
2018-06-23T06:27:38.796Z,50.75
2018-06-23T06:30:07.810Z,50.21
2018-06-23T06:32:35.614Z,50.69
2018-06-23T06:35:03.583Z,50.50
2018-06-23T06:37:31.438Z,50.21
2018-06-23T06:39:59.353Z,50.07
2018-06-23T06:42:27.129Z,50.33
2018-06-23T06:44:54.930Z,50.14
2018-06-23T06:47:22.654Z,49.84
2018-06-23T06:49:50.475Z,50.00
2018-06-23T06:52:18.267Z,49.66
2018-06-23T06:54:46.001Z,50.51
2018-06-23T06:57:13.832Z,50.16
2018-06-23T06:59:41.658Z,50.21
2018-06-23T07:02:09.375Z,49.60
2018-06-23T07:04:37.299Z,50.15
2018-06-23T07:07:05.130Z,49.57
2018-06-23T07:09:32.903Z,49.21
2018-06-23T07:12:01.110Z,49.92
2018-06-23T07:14:28.827Z,49.24
2018-06-23T07:16:56.590Z,49.58
2018-06-23T07:19:24.409Z,49.22
2018-06-23T07:21:52.195Z,49.14
2018-06-23T07:24:19.988Z,49.10
2018-06-23T07:26:47.967Z,49.36
2018-06-23T07:29:15.812Z,49.21
2018-06-23T07:31:43.696Z,49.68
2018-06-23T07:34:11.497Z,49.46
2018-06-23T07:36:39.265Z,49.23
2018-06-23T07:39:08.404Z,49.28
2018-06-23T07:41:36.266Z,49.46
2018-06-23T07:44:04.619Z,49.29
2018-06-23T07:46:32.848Z,49.33
2018-06-23T07:49:00.680Z,49.70
2018-06-23T07:51:28.434Z,49.29
2018-06-23T07:53:56.270Z,49.78
2018-06-23T07:56:23.992Z,49.04
2018-06-23T07:58:51.777Z,49.41
2018-06-23T08:01:19.825Z,49.20
2018-06-23T08:03:47.440Z,49.42
2018-06-23T08:06:15.589Z,49.35
2018-06-23T08:08:43.507Z,48.90
2018-06-23T08:11:11.182Z,49.06
2018-06-23T08:13:38.829Z,49.40
2018-06-23T08:16:06.983Z,49.30
2018-06-23T08:18:34.783Z,49.23
2018-06-23T08:21:02.561Z,48.82
2018-06-23T08:23:30.560Z,49.58
2018-06-23T08:25:58.368Z,49.56
2018-06-23T08:28:26.134Z,49.61
2018-06-23T08:30:53.883Z,49.67
2018-06-23T08:33:21.678Z,49.57
2018-06-23T08:35:49.409Z,49.21
2018-06-23T08:38:17.222Z,49.17
2018-06-23T08:40:44.967Z,49.04
2018-06-23T08:43:12.794Z,48.78
2018-06-23T08:45:40.689Z,48.73
2018-06-23T08:48:08.571Z,48.65
2018-06-23T08:50:36.298Z,48.42
2018-06-23T08:53:04.151Z,48.68
2018-06-23T08:55:31.939Z,48.91
2018-06-23T08:57:59.766Z,48.52
2018-06-23T09:00:27.503Z,48.88
2018-06-23T09:02:55.329Z,48.73
2018-06-23T09:05:23.278Z,47.90
2018-06-23T09:07:51.124Z,48.70
2018-06-23T09:10:19.163Z,48.15
2018-06-23T09:12:46.969Z,48.85
2018-06-23T09:15:15.206Z,48.94
2018-06-23T09:17:43.191Z,48.41
2018-06-23T09:20:11.149Z,48.35
2018-06-23T09:22:39.104Z,48.20
2018-06-23T09:25:06.907Z,49.03
2018-06-23T09:27:34.706Z,48.82
2018-06-23T09:30:02.491Z,48.57
2018-06-23T09:32:30.690Z,48.49
2018-06-23T09:34:58.515Z,49.04
2018-06-23T09:37:26.345Z,49.05
2018-06-23T09:39:54.725Z,48.79
2018-06-23T09:42:22.961Z,48.12
2018-06-23T09:44:50.641Z,48.80
2018-06-23T09:47:18.674Z,48.84
2018-06-23T09:49:46.924Z,49.09
2018-06-23T09:52:14.762Z,48.90
2018-06-23T09:54:42.519Z,48.06
2018-06-23T09:57:10.346Z,48.56
2018-06-23T09:59:38.894Z,48.42
2018-06-23T10:02:06.811Z,49.18
2018-06-23T10:04:34.764Z,48.39
2018-06-23T10:07:02.690Z,48.86
2018-06-23T10:09:30.488Z,48.13
2018-06-23T10:11:58.288Z,48.17
2018-06-23T10:14:25.920Z,48.40
2018-06-23T10:16:53.829Z,49.26
2018-06-23T10:19:21.803Z,48.86
2018-06-23T10:21:49.530Z,49.69
2018-06-23T10:24:17.284Z,49.78
2018-06-23T10:26:45.133Z,49.13
2018-06-23T10:29:12.806Z,49.13
2018-06-23T10:31:40.700Z,49.55
2018-06-23T10:34:08.526Z,48.78
2018-06-23T10:36:36.366Z,48.81
2018-06-23T10:39:06.901Z,48.98
2018-06-23T10:41:34.741Z,48.72
2018-06-23T10:44:02.803Z,48.29
2018-06-23T10:46:30.575Z,48.98
2018-06-23T10:48:58.640Z,48.98
2018-06-23T10:51:26.494Z,49.03
2018-06-23T10:53:54.334Z,48.86
2018-06-23T10:56:22.378Z,48.12
2018-06-23T10:58:50.077Z,48.64
2018-06-23T11:01:17.991Z,48.01
2018-06-23T11:03:45.710Z,48.06
2018-06-23T11:06:13.388Z,48.17
2018-06-23T11:08:41.249Z,48.94
2018-06-23T11:11:09.028Z,49.07
2018-06-23T11:13:38.312Z,48.55
2018-06-23T11:16:06.248Z,49.35
2018-06-23T11:18:34.010Z,48.51
2018-06-23T11:21:01.728Z,48.82
2018-06-23T11:23:29.711Z,49.16
2018-06-23T11:25:57.589Z,49.39
2018-06-23T11:28:25.765Z,49.02
2018-06-23T11:30:53.497Z,49.10
2018-06-23T11:33:21.312Z,49.48
2018-06-23T11:35:49.184Z,49.89
2018-06-23T11:38:17.291Z,49.12
2018-06-23T11:40:45.148Z,48.93
2018-06-23T11:43:12.830Z,49.38
2018-06-23T11:45:40.606Z,49.02
2018-06-23T11:48:08.491Z,49.32
2018-06-23T11:50:36.329Z,48.93
2018-06-23T11:53:04.107Z,49.02
2018-06-23T11:55:32.133Z,49.22
2018-06-23T11:57:59.884Z,49.56
2018-06-23T12:00:27.738Z,49.48
2018-06-23T12:02:55.691Z,50.14
2018-06-23T12:05:23.484Z,49.71
2018-06-23T12:07:51.292Z,50.26
2018-06-23T12:10:19.103Z,50.42
2018-06-23T12:12:47.161Z,50.32
2018-06-23T12:15:15.084Z,50.00
2018-06-23T12:17:42.810Z,49.99
2018-06-23T12:20:10.523Z,50.53
2018-06-23T12:22:38.404Z,50.19
2018-06-23T12:25:06.198Z,49.92
2018-06-23T12:27:33.948Z,50.11
2018-06-23T12:30:01.741Z,49.43
2018-06-23T12:32:29.541Z,50.29
2018-06-23T12:34:57.470Z,50.49
2018-06-23T12:37:25.262Z,50.12
2018-06-23T12:39:53.007Z,49.97
2018-06-23T12:42:21.272Z,50.10
2018-06-23T12:44:49.094Z,50.42
2018-06-23T12:47:16.913Z,49.79
2018-06-23T12:49:44.723Z,49.80
2018-06-23T12:52:12.456Z,49.61
2018-06-23T12:54:40.280Z,49.63
2018-06-23T12:57:08.415Z,49.57
2018-06-23T12:59:36.217Z,49.91
2018-06-23T13:02:04.051Z,49.44
2018-06-23T13:04:31.779Z,49.91
2018-06-23T13:06:59.757Z,50.05
2018-06-23T13:09:27.770Z,50.07
2018-06-23T13:11:55.498Z,49.74
2018-06-23T13:14:23.245Z,50.73
2018-06-23T13:16:51.056Z,50.47
2018-06-23T13:19:19.206Z,50.14
2018-06-23T13:21:46.944Z,50.17
2018-06-23T13:24:14.850Z,49.83
2018-06-23T13:26:42.711Z,50.33
2018-06-23T13:29:10.541Z,50.61
2018-06-23T13:31:38.355Z,50.08
2018-06-23T13:34:06.074Z,50.47
2018-06-23T13:36:33.922Z,49.96
2018-06-23T13:39:01.685Z,50.02
2018-06-23T13:41:29.565Z,49.85
2018-06-23T13:43:57.836Z,50.33
2018-06-23T13:46:25.561Z,50.53
2018-06-23T13:48:53.326Z,50.72
2018-06-23T13:51:21.219Z,50.67
2018-06-23T13:53:48.964Z,50.59
2018-06-23T13:56:16.842Z,50.22
2018-06-23T13:58:44.696Z,50.42
2018-06-23T14:01:12.404Z,50.27
2018-06-23T14:03:40.300Z,50.46
2018-06-23T14:06:08.120Z,50.66
2018-06-23T14:08:35.938Z,50.77
2018-06-23T14:11:03.945Z,50.67
2018-06-23T14:13:31.774Z,50.95
2018-06-23T14:15:59.513Z,50.96
2018-06-23T14:18:27.383Z,50.71
2018-06-23T14:20:55.094Z,50.97
2018-06-23T14:23:22.909Z,51.01
2018-06-23T14:25:50.611Z,50.96
2018-06-23T14:28:18.443Z,50.84
2018-06-23T14:30:46.232Z,50.58
2018-06-23T14:33:13.964Z,51.16
2018-06-23T14:35:41.901Z,50.76
2018-06-23T14:38:09.671Z,51.31
2018-06-23T14:40:37.462Z,50.93
2018-06-23T14:43:05.184Z,50.79
2018-06-23T14:45:32.959Z,51.23
2018-06-23T14:48:00.689Z,51.17
2018-06-23T14:50:28.459Z,51.26
2018-06-23T14:52:56.233Z,51.04
2018-06-23T14:55:24.147Z,51.16
2018-06-23T14:57:51.980Z,51.27
2018-06-23T15:00:19.953Z,51.27
2018-06-23T15:02:48.705Z,51.25
2018-06-23T15:05:16.530Z,51.37
2018-06-23T15:07:44.631Z,51.51
2018-06-23T15:10:23.576Z,51.44
2018-06-23T15:13:02.535Z,51.35
2018-06-23T15:15:30.284Z,51.53
2018-06-23T15:17:58.057Z,51.42
2018-06-23T15:20:25.913Z,51.38
2018-06-23T15:22:53.805Z,51.57
2018-06-23T15:25:21.587Z,51.40
2018-06-23T15:27:49.596Z,51.64
2018-06-23T15:30:17.359Z,51.49
2018-06-23T15:32:45.133Z,51.84
2018-06-23T15:35:12.874Z,51.37
2018-06-23T15:37:40.647Z,51.51
2018-06-23T15:40:08.641Z,51.35
2018-06-23T15:42:36.384Z,51.45
2018-06-23T15:45:04.122Z,51.49
2018-06-23T15:47:32.279Z,51.62
2018-06-23T15:49:59.986Z,51.61
2018-06-23T15:52:28.657Z,51.64
2018-06-23T15:54:56.418Z,51.88
2018-06-23T15:57:24.220Z,51.90
2018-06-23T15:59:52.017Z,51.81
2018-06-23T16:02:19.837Z,51.84
2018-06-23T16:04:47.764Z,51.90
2018-06-23T16:07:15.546Z,51.85
2018-06-23T16:09:43.442Z,51.82
2018-06-23T16:12:11.189Z,51.70
2018-06-23T16:14:39.007Z,51.79
2018-06-23T16:17:06.981Z,51.82
2018-06-23T16:19:34.806Z,51.72
2018-06-23T16:22:02.539Z,51.83
2018-06-23T16:24:30.297Z,51.97
2018-06-23T16:26:58.418Z,51.78
2018-06-23T16:29:26.161Z,51.89
2018-06-23T16:31:53.825Z,52.17
2018-06-23T16:34:21.686Z,52.11
2018-06-23T16:36:49.379Z,52.03
2018-06-23T16:39:17.142Z,51.92
2018-06-23T16:41:44.943Z,52.17
2018-06-23T16:44:12.729Z,51.80
2018-06-23T16:46:40.520Z,52.07
2018-06-23T16:49:08.215Z,51.89
2018-06-23T16:51:36.182Z,51.89
2018-06-23T16:54:03.943Z,51.81
2018-06-23T16:56:31.946Z,51.94
2018-06-23T16:58:59.775Z,51.86
2018-06-23T17:01:27.516Z,51.91
2018-06-23T17:03:55.495Z,51.89
2018-06-23T17:06:23.235Z,51.81
2018-06-23T17:08:51.060Z,51.90
2018-06-23T17:11:19.101Z,51.90
2018-06-23T17:13:46.917Z,52.03
2018-06-23T17:16:14.584Z,51.86
2018-06-23T17:18:42.305Z,51.94
2018-06-23T17:21:10.026Z,51.91
2018-06-23T17:23:37.822Z,52.07
2018-06-23T17:26:05.601Z,52.11
2018-06-23T17:28:33.447Z,52.17
2018-06-23T17:31:01.304Z,51.96
2018-06-23T17:33:29.236Z,52.05
2018-06-23T17:35:57.358Z,51.87
2018-06-23T17:38:25.298Z,52.20
2018-06-23T17:40:53.060Z,52.31
2018-06-23T17:43:20.814Z,52.25
2018-06-23T17:45:48.469Z,52.47
2018-06-23T17:48:16.300Z,52.23
2018-06-23T17:50:43.969Z,52.36
2018-06-23T17:53:12.091Z,52.54
2018-06-23T17:55:39.832Z,52.43
2018-06-23T17:58:07.698Z,52.47
2018-06-23T18:00:35.434Z,52.12
2018-06-23T18:03:03.259Z,52.13
2018-06-23T18:05:31.136Z,52.38
2018-06-23T18:07:58.945Z,52.40
2018-06-23T18:10:26.905Z,52.58
2018-06-23T18:12:54.684Z,52.56
2018-06-23T18:15:22.399Z,52.54
2018-06-23T18:17:50.219Z,52.51
2018-06-23T18:20:17.956Z,52.34
2018-06-23T18:22:45.829Z,52.38
2018-06-23T18:25:13.661Z,52.42
2018-06-23T18:27:41.467Z,52.42
2018-06-23T18:30:09.214Z,52.49
2018-06-23T18:32:37.019Z,52.51
2018-06-23T18:35:04.876Z,52.48
2018-06-23T18:37:32.577Z,52.38
2018-06-23T18:40:00.660Z,52.54
2018-06-23T18:42:28.418Z,52.57
2018-06-23T18:44:56.291Z,52.49
2018-06-23T18:47:24.282Z,52.68
2018-06-23T18:49:52.243Z,52.58
2018-06-23T18:52:19.994Z,52.34
2018-06-23T18:54:47.798Z,52.31
2018-06-23T18:57:16.136Z,52.58
2018-06-23T18:59:43.909Z,52.49
2018-06-23T19:02:11.538Z,52.57
2018-06-23T19:04:39.763Z,52.70
2018-06-23T19:07:07.483Z,52.67
2018-06-23T19:09:35.270Z,52.65
2018-06-23T19:12:03.036Z,52.37
2018-06-23T19:14:30.849Z,52.32
2018-06-23T19:16:58.608Z,52.33
2018-06-23T19:19:26.361Z,52.44
2018-06-23T19:21:54.272Z,52.67
2018-06-23T19:24:21.972Z,52.55
2018-06-23T19:26:49.781Z,52.36
2018-06-23T19:29:17.985Z,52.41
2018-06-23T19:31:45.962Z,52.51
2018-06-23T19:34:14.130Z,52.44
2018-06-23T19:36:41.996Z,52.25
2018-06-23T19:39:10.556Z,52.33
2018-06-23T19:41:38.295Z,52.50
2018-06-23T19:44:05.990Z,52.54
2018-06-23T19:46:33.803Z,52.58
2018-06-23T19:49:01.629Z,52.56
2018-06-23T19:51:29.356Z,52.47
2018-06-23T19:53:57.428Z,52.40
2018-06-23T19:56:25.221Z,52.32
2018-06-23T19:58:53.097Z,52.58
2018-06-23T20:01:20.838Z,52.70
2018-06-23T20:03:48.862Z,52.64
2018-06-23T20:06:16.578Z,52.63
2018-06-23T20:08:44.415Z,52.36
2018-06-23T20:11:12.233Z,52.49
2018-06-23T20:13:39.947Z,52.61
2018-06-23T20:16:07.883Z,52.64
2018-06-23T20:18:35.756Z,52.56
2018-06-23T20:21:03.491Z,52.31
2018-06-23T20:23:31.727Z,52.67
2018-06-23T20:25:59.561Z,52.56
2018-06-23T20:28:28.212Z,52.28
2018-06-23T20:30:56.410Z,52.43
2018-06-23T20:33:24.737Z,52.46
2018-06-23T20:35:52.713Z,52.56
2018-06-23T20:38:21.327Z,52.56
2018-06-23T20:40:49.648Z,52.70
2018-06-23T20:43:17.494Z,52.55
2018-06-23T20:45:45.249Z,52.58
2018-06-23T20:48:13.052Z,52.53
2018-06-23T20:50:40.953Z,52.42
2018-06-23T20:53:08.745Z,52.42
2018-06-23T20:55:36.534Z,52.33
2018-06-23T20:58:04.377Z,52.41
2018-06-23T21:00:32.561Z,52.47
2018-06-23T21:03:00.230Z,52.46
2018-06-23T21:05:28.491Z,52.30
2018-06-23T21:07:56.204Z,52.33
2018-06-23T21:10:35.083Z,52.48
2018-06-23T21:13:02.923Z,52.31
2018-06-23T21:15:30.628Z,52.61
2018-06-23T21:17:58.516Z,52.50
2018-06-23T21:20:26.304Z,52.12
2018-06-23T21:22:54.016Z,52.40
2018-06-23T21:25:21.798Z,52.35
2018-06-23T21:27:49.518Z,52.56
2018-06-23T21:30:17.270Z,52.34
2018-06-23T21:32:44.989Z,52.24
2018-06-23T21:35:13.297Z,52.20
2018-06-23T21:37:41.141Z,52.29
2018-06-23T21:40:09.071Z,52.20
2018-06-23T21:42:37.261Z,52.35
2018-06-23T21:45:04.990Z,52.46
2018-06-23T21:47:32.694Z,52.34
2018-06-23T21:50:00.529Z,52.28
2018-06-23T21:52:28.303Z,52.28
2018-06-23T21:54:56.177Z,52.36
2018-06-23T21:57:24.023Z,52.19
2018-06-23T21:59:51.848Z,52.35
2018-06-23T22:02:19.781Z,52.39
2018-06-23T22:04:47.488Z,52.36
2018-06-23T22:07:15.383Z,52.35
2018-06-23T22:09:43.163Z,52.46
2018-06-23T22:12:11.013Z,52.32
2018-06-23T22:14:38.949Z,52.27
2018-06-23T22:17:06.957Z,52.29
2018-06-23T22:19:34.800Z,52.28
2018-06-23T22:22:02.663Z,52.51
2018-06-23T22:24:30.392Z,52.36
2018-06-23T22:26:58.210Z,52.33
2018-06-23T22:29:26.495Z,52.45
2018-06-23T22:31:54.290Z,52.45
2018-06-23T22:34:22.116Z,52.29
2018-06-23T22:36:50.294Z,52.25
2018-06-23T22:39:18.004Z,52.22
2018-06-23T22:41:45.742Z,52.51
2018-06-23T22:44:13.529Z,52.21
2018-06-23T22:46:41.502Z,52.32
2018-06-23T22:49:09.318Z,52.43
2018-06-23T22:51:37.008Z,52.13
2018-06-23T22:54:04.896Z,52.23
2018-06-23T22:56:32.664Z,52.17
2018-06-23T22:59:00.529Z,52.09
2018-06-23T23:01:28.307Z,52.26
2018-06-23T23:03:56.109Z,52.08
2018-06-23T23:06:23.905Z,52.08
2018-06-23T23:08:51.717Z,52.17
2018-06-23T23:11:19.624Z,52.05
2018-06-23T23:13:47.444Z,52.22
2018-06-23T23:16:15.151Z,52.26
2018-06-23T23:18:43.270Z,52.08
2018-06-23T23:21:11.119Z,52.18
2018-06-23T23:23:38.791Z,52.19
2018-06-23T23:26:06.584Z,52.19
2018-06-23T23:28:34.300Z,52.21
2018-06-23T23:31:02.054Z,52.36
2018-06-23T23:33:29.980Z,52.02
2018-06-23T23:35:58.107Z,52.32
2018-06-23T23:38:25.932Z,52.13
2018-06-23T23:40:53.724Z,52.04
2018-06-23T23:43:21.738Z,52.24
2018-06-23T23:45:49.539Z,52.19
2018-06-23T23:48:17.311Z,52.20
2018-06-23T23:50:45.071Z,52.31
2018-06-23T23:53:13.246Z,52.10
2018-06-23T23:55:41.041Z,51.91
2018-06-23T23:58:08.825Z,52.05
